createdAt,value
2023-01-09T00:00:01.541Z,24.3
2023-01-09T00:01:01.246Z,24.4
2023-01-09T00:02:00.908Z,24.5
2023-01-09T00:03:01.160Z,24.3
2023-01-09T00:04:01.216Z,24.3
2023-01-09T00:05:01.186Z,24.3
2023-01-09T00:06:01.882Z,24.2
2023-01-09T00:07:01.588Z,24.2
2023-01-09T00:08:01.202Z,24.3
2023-01-09T00:09:01.120Z,24.3
2023-01-09T00:10:01.098Z,24.3
2023-01-09T00:11:01.489Z,24.4
2023-01-09T00:12:01.103Z,24.3
2023-01-09T00:13:01.104Z,24.2
2023-01-09T00:14:01.877Z,24.2
2023-01-09T00:15:01.223Z,24.1
2023-01-09T00:16:01.166Z,24.2
2023-01-09T00:17:01.258Z,24.2
2023-01-09T00:18:01.153Z,24.3
2023-01-09T00:19:01.153Z,24.4
2023-01-09T00:20:01.182Z,24.4
2023-01-09T00:21:01.565Z,24.4
2023-01-09T00:22:01.069Z,24.4
2023-01-09T00:23:01.100Z,24.5
2023-01-09T00:24:01.079Z,24.3
2023-01-09T00:25:01.096Z,24.3
2023-01-09T00:26:01.290Z,24.4
2023-01-09T00:27:01.100Z,24.5
2023-01-09T00:28:01.162Z,24.3
2023-01-09T00:29:01.393Z,24.2
2023-01-09T00:30:02.040Z,24.2
2023-01-09T00:31:02.208Z,24.3
2023-01-09T00:32:01.470Z,24.3
2023-01-09T00:33:01.936Z,24.2
2023-01-09T00:34:01.141Z,24.2
2023-01-09T00:35:01.096Z,24.2
2023-01-09T00:36:01.381Z,24.3
2023-01-09T00:37:02.588Z,24.2
2023-01-09T00:38:01.078Z,24.1
2023-01-09T00:39:01.103Z,24
2023-01-09T00:40:01.816Z,23.9
2023-01-09T00:41:01.480Z,23.8
2023-01-09T00:42:01.204Z,23.9
2023-01-09T00:43:02.484Z,23.9
2023-01-09T00:44:01.091Z,23.8
2023-01-09T00:45:01.113Z,23.8
2023-01-09T00:46:01.196Z,23.8
2023-01-09T00:47:01.143Z,23.8
2023-01-09T00:48:01.390Z,23.8
2023-01-09T00:49:01.537Z,23.8
2023-01-09T00:50:01.401Z,23.6
2023-01-09T00:51:02.826Z,23.5
2023-01-09T00:52:01.162Z,23.4
2023-01-09T00:53:01.164Z,23.3
2023-01-09T00:54:01.270Z,23.3
2023-01-09T00:55:01.093Z,23.4
2023-01-09T00:56:01.701Z,23.4
2023-01-09T00:57:01.079Z,23.4
2023-01-09T00:58:01.210Z,23.2
2023-01-09T00:59:01.099Z,23.3
2023-01-09T01:00:01.099Z,23.3
2023-01-09T01:01:01.939Z,23.3
2023-01-09T01:02:01.468Z,23.2
2023-01-09T01:03:01.934Z,23.1
2023-01-09T01:04:01.211Z,22.9
2023-01-09T01:05:01.065Z,22.8
2023-01-09T01:06:01.594Z,22.9
2023-01-09T01:07:01.264Z,22.9
2023-01-09T01:08:02.263Z,22.8
2023-01-09T01:09:01.153Z,22.8
2023-01-09T01:10:01.157Z,22.8
2023-01-09T01:11:03.416Z,22.7
2023-01-09T01:12:02.402Z,22.8
2023-01-09T01:13:01.088Z,22.8
2023-01-09T01:14:01.137Z,22.8
2023-01-09T01:15:01.430Z,22.7
2023-01-09T01:16:06.910Z,22.7
2023-01-09T01:17:02.327Z,22.6
2023-01-09T01:18:01.157Z,22.6
2023-01-09T01:19:01.109Z,22.5
2023-01-09T01:20:01.114Z,22.4
2023-01-09T01:21:09.362Z,22.6
2023-01-09T01:22:01.440Z,22.5
2023-01-09T01:23:02.624Z,22.7
2023-01-09T01:24:02.568Z,22.5
2023-01-09T01:25:02.289Z,22.5
2023-01-09T01:26:12.785Z,22.5
2023-01-09T01:27:01.125Z,22.5
2023-01-09T01:28:01.807Z,22.7
2023-01-09T01:29:01.881Z,22.6
2023-01-09T01:30:01.143Z,22.7
2023-01-09T01:31:13.596Z,22.7
2023-01-09T01:32:01.087Z,22.6
2023-01-09T01:33:01.124Z,22.6
2023-01-09T01:34:01.132Z,22.7
2023-01-09T01:35:01.314Z,22.7
2023-01-09T01:36:16.871Z,22.5
2023-01-09T01:37:01.123Z,22.5
2023-01-09T01:38:01.129Z,22.4
2023-01-09T01:39:01.043Z,22.3
2023-01-09T01:40:01.172Z,22.1
2023-01-09T01:41:01.056Z,22.3
2023-01-09T01:42:01.148Z,22.2
2023-01-09T01:43:01.458Z,22.1
2023-01-09T01:44:01.072Z,22.1
2023-01-09T01:45:01.146Z,22.1
2023-01-09T01:46:01.145Z,22
2023-01-09T01:47:01.040Z,22
2023-01-09T01:48:01.046Z,22
2023-01-09T01:49:01.094Z,22
2023-01-09T01:50:01.359Z,22
2023-01-09T01:51:01.728Z,22
2023-01-09T01:52:01.956Z,22
2023-01-09T01:53:02.269Z,22
2023-01-09T01:54:01.122Z,22
2023-01-09T01:55:01.133Z,22
2023-01-09T01:56:01.156Z,22
2023-01-09T01:57:01.172Z,22
2023-01-09T01:58:01.184Z,21.9
2023-01-09T01:59:01.070Z,21.7
2023-01-09T02:00:01.200Z,21.8
2023-01-09T02:01:01.365Z,22
2023-01-09T02:02:02.663Z,22
2023-01-09T02:03:02.029Z,22
2023-01-09T02:04:01.812Z,22
2023-01-09T02:05:01.787Z,22
2023-01-09T02:06:01.103Z,22
2023-01-09T02:07:01.114Z,22
2023-01-09T02:08:01.218Z,22
2023-01-09T02:09:01.293Z,22
2023-01-09T02:10:01.234Z,22
2023-01-09T02:11:01.942Z,22
2023-01-09T02:12:00.660Z,21.7
2023-01-09T02:13:00.441Z,21.8
2023-01-09T02:14:00.249Z,21.9
2023-01-09T02:15:00.042Z,21.7
2023-01-09T02:15:59.980Z,21.5
2023-01-09T02:16:59.829Z,21.4
2023-01-09T02:18:02.097Z,21.5
2023-01-09T02:19:01.109Z,21.5
2023-01-09T02:20:01.086Z,21.5
2023-01-09T02:21:01.097Z,21.5
2023-01-09T02:22:01.139Z,21.4
2023-01-09T02:23:01.139Z,21.5
2023-01-09T02:24:01.122Z,21.5
2023-01-09T02:25:01.054Z,21.3
2023-01-09T02:26:01.055Z,21.4
2023-01-09T02:27:01.135Z,21.4
2023-01-09T02:28:01.055Z,21.3
2023-01-09T02:29:01.522Z,21.3
2023-01-09T02:30:01.139Z,21.3
2023-01-09T02:31:01.056Z,21.2
2023-01-09T02:32:01.063Z,21.2
2023-01-09T02:33:01.078Z,21.3
2023-01-09T02:34:01.074Z,21
2023-01-09T02:35:01.120Z,20.9
2023-01-09T02:36:01.080Z,20.8
2023-01-09T02:37:01.543Z,20.8
2023-01-09T02:38:01.106Z,20.7
2023-01-09T02:39:01.170Z,20.6
2023-01-09T02:40:01.336Z,20.5
2023-01-09T02:41:01.948Z,20.5
2023-01-09T02:42:01.759Z,20.7
2023-01-09T02:43:01.253Z,20.5
2023-01-09T02:44:01.144Z,20.6
2023-01-09T02:45:01.178Z,20.5
2023-01-09T02:46:01.230Z,20.5
2023-01-09T02:47:01.285Z,20.2
2023-01-09T02:48:01.343Z,20
2023-01-09T02:49:05.966Z,20
2023-01-09T02:50:01.078Z,20
2023-01-09T02:51:01.080Z,20
2023-01-09T02:52:01.109Z,20
2023-01-09T02:53:01.103Z,20
2023-01-09T02:54:01.109Z,19.9
2023-01-09T02:55:01.142Z,19.9
2023-01-09T02:56:01.155Z,19.8
2023-01-09T02:57:00.881Z,19.8
2023-01-09T02:58:01.235Z,19.8
2023-01-09T02:59:01.131Z,19.6
2023-01-09T03:00:01.127Z,19.6
2023-01-09T03:01:01.888Z,19.5
2023-01-09T03:02:04.265Z,19.4
2023-01-09T03:03:01.622Z,19.3
2023-01-09T03:04:01.059Z,19.3
2023-01-09T03:05:01.166Z,19.2
2023-01-09T03:06:01.083Z,19.2
2023-01-09T03:07:06.611Z,19.2
2023-01-09T03:08:01.080Z,19.1
2023-01-09T03:09:01.104Z,19.1
2023-01-09T03:10:01.145Z,19.1
2023-01-09T03:11:02.458Z,18.8
2023-01-09T03:12:09.888Z,18.8
2023-01-09T03:13:01.130Z,18.8
2023-01-09T03:14:01.131Z,18.9
2023-01-09T03:15:01.415Z,18.9
2023-01-09T03:16:02.074Z,18.7
2023-01-09T03:17:12.582Z,18.6
2023-01-09T03:18:01.144Z,18.6
2023-01-09T03:19:01.175Z,18.6
2023-01-09T03:20:01.161Z,18.6
2023-01-09T03:21:01.780Z,18.5
2023-01-09T03:22:15.036Z,18.5
2023-01-09T03:23:01.377Z,18.4
2023-01-09T03:24:01.473Z,18.3
2023-01-09T03:25:04.698Z,18.2
2023-01-09T03:26:01.107Z,18.3
2023-01-09T03:27:01.109Z,18.2
2023-01-09T03:28:01.132Z,18.1
2023-01-09T03:29:00.791Z,18.2
2023-01-09T03:30:00.507Z,18.2
2023-01-09T03:31:00.218Z,18.2
2023-01-09T03:31:59.913Z,18.1
2023-01-09T03:32:59.614Z,18.2
2023-01-09T03:34:01.815Z,18.1
2023-01-09T03:35:01.713Z,18.1
2023-01-09T03:36:01.779Z,18.1
2023-01-09T03:37:01.744Z,18.1
2023-01-09T03:38:01.090Z,18.1
2023-01-09T03:39:01.130Z,18.2
2023-01-09T03:40:01.073Z,18.1
2023-01-09T03:41:01.078Z,18.1
2023-01-09T03:42:01.059Z,18
2023-01-09T03:43:01.099Z,18
2023-01-09T03:44:01.105Z,17.9
2023-01-09T03:45:01.125Z,17.9
2023-01-09T03:46:02.551Z,17.9
2023-01-09T03:47:01.424Z,18
2023-01-09T03:48:01.397Z,17.9
2023-01-09T03:49:01.385Z,17.9
2023-01-09T03:50:01.431Z,17.9
2023-01-09T03:51:02.588Z,17.8
2023-01-09T03:52:02.088Z,17.8
2023-01-09T03:53:01.174Z,17.7
2023-01-09T03:54:01.079Z,17.8
2023-01-09T03:55:01.077Z,17.8
2023-01-09T03:56:01.165Z,17.7
2023-01-09T03:57:01.112Z,17.7
2023-01-09T03:58:01.485Z,17.8
2023-01-09T03:59:05.039Z,17.6
2023-01-09T04:00:01.129Z,17.7
2023-01-09T04:01:01.302Z,17.7
2023-01-09T04:02:03.707Z,17.5
2023-01-09T04:03:01.150Z,17.3
2023-01-09T04:04:01.217Z,17.3
2023-01-09T04:05:01.132Z,17.5
2023-01-09T04:06:01.179Z,17.4
2023-01-09T04:07:01.151Z,17.4
2023-01-09T04:08:01.249Z,17.2
2023-01-09T04:09:00.862Z,17.3
2023-01-09T04:10:00.692Z,17.3
2023-01-09T04:11:00.531Z,17.3
2023-01-09T04:12:00.257Z,17.2
2023-01-09T04:12:59.880Z,17.2
2023-01-09T04:13:59.552Z,17.2
2023-01-09T04:15:01.143Z,17.2
2023-01-09T04:16:01.161Z,17.2
2023-01-09T04:17:01.109Z,17.3
2023-01-09T04:18:01.513Z,17.3
2023-01-09T04:19:01.124Z,17.3
2023-01-09T04:20:01.048Z,17.4
2023-01-09T04:21:01.045Z,17.4
2023-01-09T04:22:01.149Z,17.4
2023-01-09T04:23:01.155Z,17.5
2023-01-09T04:24:01.856Z,17.4
2023-01-09T04:25:00.872Z,17.6
2023-01-09T04:26:00.624Z,17.6
2023-01-09T04:27:00.360Z,17.7
2023-01-09T04:28:00.124Z,17.6
2023-01-09T04:28:59.847Z,17.6
2023-01-09T04:30:02.275Z,17.7
2023-01-09T04:31:01.542Z,17.9
2023-01-09T04:32:01.113Z,17.9
2023-01-09T04:33:01.143Z,18
2023-01-09T04:34:01.155Z,18.1
2023-01-09T04:35:01.207Z,18
2023-01-09T04:36:01.288Z,18.1
2023-01-09T04:37:01.298Z,18.2
2023-01-09T04:38:01.280Z,18.2
2023-01-09T04:39:01.162Z,18.3
2023-01-09T04:40:01.200Z,18.3
2023-01-09T04:41:01.982Z,18.4
2023-01-09T04:42:01.085Z,18.5
2023-01-09T04:43:01.705Z,18.6
2023-01-09T04:44:01.562Z,18.6
2023-01-09T04:45:02.160Z,18.6
2023-01-09T04:46:01.086Z,18.6
2023-01-09T04:47:01.112Z,18.8
2023-01-09T04:48:03.946Z,18.8
2023-01-09T04:49:04.196Z,18.9
2023-01-09T04:50:01.104Z,19
2023-01-09T04:51:01.095Z,19.1
2023-01-09T04:52:01.102Z,19.1
2023-01-09T04:53:05.729Z,19.1
2023-01-09T04:54:02.462Z,19.3
2023-01-09T04:55:01.367Z,19.3
2023-01-09T04:56:02.711Z,19.4
2023-01-09T04:57:01.124Z,19.4
2023-01-09T04:58:09.681Z,19.6
2023-01-09T04:59:01.112Z,19.8
2023-01-09T05:00:01.792Z,19.9
2023-01-09T05:01:01.984Z,20
2023-01-09T05:02:01.891Z,20.3
2023-01-09T05:03:11.429Z,20.4
2023-01-09T05:04:01.298Z,21
2023-01-09T05:05:02.036Z,21.2
2023-01-09T05:06:01.136Z,21.5
2023-01-09T05:07:01.128Z,22.1
2023-01-09T05:08:14.124Z,22.4
2023-01-09T05:09:01.134Z,22.4
2023-01-09T05:10:01.151Z,22.4
2023-01-09T05:11:01.534Z,23.1
2023-01-09T05:12:01.962Z,23.7
2023-01-09T05:13:01.223Z,24
2023-01-09T05:14:01.866Z,24.8
2023-01-09T05:15:01.368Z,25.3
2023-01-09T05:16:01.081Z,25.9
2023-01-09T05:17:01.483Z,26.4
2023-01-09T05:18:01.483Z,27
2023-01-09T05:19:01.106Z,27.2
2023-01-09T05:20:01.201Z,27.7
2023-01-09T05:21:01.128Z,28.1
2023-01-09T05:22:01.247Z,28.9
2023-01-09T05:23:01.198Z,29.3
2023-01-09T05:24:01.543Z,30
2023-01-09T05:25:01.139Z,30.5
2023-01-09T05:26:01.174Z,30.9
2023-01-09T05:27:01.217Z,31.2
2023-01-09T05:28:01.578Z,31.7
2023-01-09T05:29:01.526Z,32.1
2023-01-09T05:30:01.163Z,32.2
2023-01-09T05:31:01.242Z,32.6
2023-01-09T05:32:01.182Z,33.3
2023-01-09T05:33:01.274Z,33.8
2023-01-09T05:34:01.139Z,34.3
2023-01-09T05:35:01.245Z,34.5
2023-01-09T05:36:01.247Z,35.2
2023-01-09T05:37:01.140Z,35.9
2023-01-09T05:38:01.203Z,36.7
2023-01-09T05:39:02.027Z,37.3
2023-01-09T05:40:02.170Z,37.7
2023-01-09T05:41:01.397Z,38
2023-01-09T05:42:01.276Z,38
2023-01-09T05:43:02.120Z,38.3
2023-01-09T05:44:11.735Z,38.3
2023-01-09T05:45:20.263Z,38.4
2023-01-09T05:46:01.972Z,38.4
2023-01-09T05:47:02.935Z,38.4
2023-01-09T05:48:01.086Z,38.5
2023-01-09T05:49:02.138Z,38.7
2023-01-09T05:50:03.036Z,38.7
2023-01-09T05:51:01.285Z,38.9
2023-01-09T05:52:01.286Z,39.2
2023-01-09T05:53:01.094Z,39.5
2023-01-09T05:54:01.118Z,39.7
2023-01-09T05:55:01.137Z,40.1
2023-01-09T05:56:01.284Z,40.4
2023-01-09T05:57:01.172Z,40.9
2023-01-09T05:58:01.185Z,41.3
2023-01-09T05:59:01.048Z,41.7
2023-01-09T06:00:01.097Z,42.2
2023-01-09T06:01:01.189Z,42.6
2023-01-09T06:02:01.147Z,43.2
2023-01-09T06:03:01.174Z,43.6
2023-01-09T06:04:01.141Z,44.1
2023-01-09T06:05:01.181Z,44.7
2023-01-09T06:06:01.068Z,44.8
2023-01-09T06:07:01.214Z,45.1
2023-01-09T06:08:02.309Z,45.6
2023-01-09T06:09:01.223Z,45.9
2023-01-09T06:10:01.108Z,46.2
2023-01-09T06:11:00.853Z,46.3
2023-01-09T06:12:00.535Z,46.5
2023-01-09T06:13:00.164Z,46.7
2023-01-09T06:14:00.057Z,46.8
2023-01-09T06:14:59.812Z,47
2023-01-09T06:16:01.493Z,47.7
2023-01-09T06:17:01.395Z,48.5
2023-01-09T06:18:02.387Z,49.2
2023-01-09T06:19:01.143Z,49.7
2023-01-09T06:20:01.125Z,50.6
2023-01-09T06:21:01.092Z,51.1
2023-01-09T06:22:01.233Z,51.4
2023-01-09T06:23:01.115Z,51.8
2023-01-09T06:24:01.438Z,52.3
2023-01-09T06:25:01.488Z,53
2023-01-09T06:26:01.118Z,53.9
2023-01-09T06:27:01.125Z,54.8
2023-01-09T06:28:01.133Z,55.5
2023-01-09T06:29:03.634Z,55.9
2023-01-09T06:30:01.566Z,56.8
2023-01-09T06:31:01.212Z,57.5
2023-01-09T06:32:01.661Z,58.6
2023-01-09T06:33:01.212Z,59
2023-01-09T06:34:06.236Z,59.7
2023-01-09T06:35:01.980Z,60.8
2023-01-09T06:36:00.882Z,61.8
2023-01-09T06:37:00.722Z,62.3
2023-01-09T06:38:00.466Z,63
2023-01-09T06:39:08.446Z,63.3
2023-01-09T06:40:01.111Z,64
2023-01-09T06:41:01.110Z,64.3
2023-01-09T06:42:01.924Z,64.8
2023-01-09T06:43:01.470Z,65.6
2023-01-09T06:44:10.883Z,66.6
2023-01-09T06:45:01.243Z,66.9
2023-01-09T06:46:01.359Z,67.2
2023-01-09T06:47:02.611Z,67.7
2023-01-09T06:48:04.230Z,68
2023-01-09T06:49:13.604Z,68.3
2023-01-09T06:50:02.619Z,68.7
2023-01-09T06:51:01.774Z,69
2023-01-09T06:52:01.465Z,69.8
2023-01-09T06:53:01.247Z,69.6
2023-01-09T06:54:16.639Z,69.4
2023-01-09T06:55:02.265Z,69.6
2023-01-09T06:56:01.960Z,69.9
2023-01-09T06:57:01.170Z,69.6
2023-01-09T06:58:01.161Z,69.3
2023-01-09T06:59:01.181Z,69.4
2023-01-09T07:00:01.164Z,70
2023-01-09T07:01:01.225Z,70.1
2023-01-09T07:02:01.231Z,69.9
2023-01-09T07:03:01.519Z,70.3
2023-01-09T07:04:01.620Z,70.5
2023-01-09T07:05:01.263Z,70.1
2023-01-09T07:06:01.169Z,69.7
2023-01-09T07:07:01.175Z,68.7
2023-01-09T07:08:01.201Z,68.5
2023-01-09T07:09:01.067Z,68.3
2023-01-09T07:10:01.310Z,68.6
2023-01-09T07:11:01.281Z,68.7
2023-01-09T07:12:01.256Z,68.4
2023-01-09T07:13:01.260Z,67.9
2023-01-09T07:14:01.542Z,67.8
2023-01-09T07:15:01.314Z,67.6
2023-01-09T07:16:02.129Z,67.9
2023-01-09T07:17:01.182Z,67.5
2023-01-09T07:18:01.116Z,66.8
2023-01-09T07:19:01.132Z,65.8
2023-01-09T07:20:01.175Z,65.4
2023-01-09T07:21:01.201Z,65.4
2023-01-09T07:22:01.414Z,65.1
2023-01-09T07:23:01.472Z,64.5
2023-01-09T07:24:01.491Z,63.6
2023-01-09T07:25:01.190Z,63
2023-01-09T07:26:01.250Z,63
2023-01-09T07:27:01.072Z,62.8
2023-01-09T07:28:01.056Z,63
2023-01-09T07:29:01.058Z,62.9
2023-01-09T07:30:01.136Z,62.7
2023-01-09T07:31:01.191Z,62.2
2023-01-09T07:32:01.262Z,61.7
2023-01-09T07:33:03.800Z,61.3
2023-01-09T07:34:01.136Z,61.4
2023-01-09T07:35:01.237Z,61.3
2023-01-09T07:36:01.148Z,61.1
2023-01-09T07:37:01.164Z,60.9
2023-01-09T07:38:01.175Z,60.8
2023-01-09T07:39:01.071Z,60.6
2023-01-09T07:40:01.066Z,60.1
2023-01-09T07:41:01.065Z,59.9
2023-01-09T07:42:01.078Z,59.5
2023-01-09T07:43:01.223Z,59.3
2023-01-09T07:44:01.353Z,59.3
2023-01-09T07:45:02.157Z,58.8
2023-01-09T07:46:01.362Z,58.8
2023-01-09T07:47:01.117Z,59
2023-01-09T07:48:01.719Z,59.3
2023-01-09T07:49:01.141Z,59.1
2023-01-09T07:50:01.186Z,58.8
2023-01-09T07:51:01.143Z,58.3
2023-01-09T07:52:01.155Z,58.4
2023-01-09T07:53:01.455Z,58.4
2023-01-09T07:54:02.248Z,58.6
2023-01-09T07:55:01.292Z,58.7
2023-01-09T07:56:01.404Z,59
2023-01-09T07:57:02.689Z,59.1
2023-01-09T07:58:02.348Z,58.7
2023-01-09T07:59:02.429Z,58.6
2023-01-09T08:00:01.173Z,58.2
2023-01-09T08:01:02.071Z,58.4
2023-01-09T08:02:01.872Z,58.4
2023-01-09T08:03:01.248Z,59
2023-01-09T08:04:00.632Z,59.1
2023-01-09T08:05:00.307Z,58.7
2023-01-09T08:05:59.882Z,58.7
2023-01-09T08:06:59.481Z,58.4
2023-01-09T08:08:01.160Z,58.1
2023-01-09T08:09:04.046Z,58.3
2023-01-09T08:10:00.563Z,58.3
2023-01-09T08:11:00.289Z,58.2
2023-01-09T08:11:59.926Z,58.3
2023-01-09T08:12:59.535Z,58.1
2023-01-09T08:14:01.161Z,57.9
2023-01-09T08:15:02.287Z,58
2023-01-09T08:16:01.170Z,58.1
2023-01-09T08:17:01.092Z,58
2023-01-09T08:18:01.116Z,57.9
2023-01-09T08:19:01.209Z,58.1
2023-01-09T08:20:00.988Z,58.1
2023-01-09T08:21:01.569Z,58.3
2023-01-09T08:22:01.171Z,58.3
2023-01-09T08:23:01.143Z,58.5
2023-01-09T08:24:00.950Z,58.6
2023-01-09T08:25:04.658Z,58.6
2023-01-09T08:26:01.209Z,58.6
2023-01-09T08:27:01.166Z,58.9
2023-01-09T08:28:01.144Z,58.8
2023-01-09T08:29:01.376Z,58.6
2023-01-09T08:30:06.462Z,58.6
2023-01-09T08:31:01.162Z,58.6
2023-01-09T08:32:01.206Z,58.5
2023-01-09T08:33:01.278Z,58.5
2023-01-09T08:34:01.107Z,58.6
2023-01-09T08:35:08.784Z,58.7
2023-01-09T08:36:01.184Z,58.7
2023-01-09T08:37:01.193Z,58.9
2023-01-09T08:38:01.115Z,58.3
2023-01-09T08:39:01.203Z,58.3
2023-01-09T08:40:12.010Z,58.5
2023-01-09T08:41:01.512Z,58.6
2023-01-09T08:42:01.153Z,58.9
2023-01-09T08:43:01.170Z,59.1
2023-01-09T08:44:00.908Z,59.1
2023-01-09T08:45:13.559Z,59.2
2023-01-09T08:46:01.841Z,59.2
2023-01-09T08:47:01.904Z,59.2
2023-01-09T08:48:01.091Z,59.1
2023-01-09T08:49:01.104Z,59
2023-01-09T08:50:16.448Z,59
2023-01-09T08:51:00.795Z,58.8
2023-01-09T08:52:00.497Z,58.4
2023-01-09T08:53:00.120Z,58.5
2023-01-09T08:53:59.813Z,58.2
2023-01-09T08:55:01.720Z,57.8
2023-01-09T08:56:02.277Z,57.3
2023-01-09T08:57:01.468Z,57.2
2023-01-09T08:58:01.064Z,57.3
2023-01-09T08:59:00.764Z,57
2023-01-09T09:00:00.388Z,57
2023-01-09T09:01:00.257Z,56.7
2023-01-09T09:01:59.975Z,56.5
2023-01-09T09:02:59.807Z,56.5
2023-01-09T09:04:01.542Z,56.5
2023-01-09T09:05:01.708Z,56.6
2023-01-09T09:06:01.184Z,56.5
2023-01-09T09:07:01.272Z,56.4
2023-01-09T09:08:01.387Z,56.3
2023-01-09T09:09:01.403Z,55.7
2023-01-09T09:10:01.436Z,55.5
2023-01-09T09:11:04.106Z,55.3
2023-01-09T09:12:01.346Z,55.4
2023-01-09T09:13:01.162Z,55.3
2023-01-09T09:14:01.220Z,55
2023-01-09T09:15:01.153Z,54.7
2023-01-09T09:16:01.588Z,54.4
2023-01-09T09:17:02.204Z,54.3
2023-01-09T09:18:01.551Z,54.3
2023-01-09T09:19:01.098Z,54.1
2023-01-09T09:20:01.092Z,53.6
2023-01-09T09:21:01.069Z,53.6
2023-01-09T09:22:01.142Z,53.7
2023-01-09T09:23:01.132Z,53.6
2023-01-09T09:24:00.822Z,53.5
2023-01-09T09:25:00.512Z,53.4
2023-01-09T09:26:00.205Z,53
2023-01-09T09:26:59.995Z,52.7
2023-01-09T09:27:59.641Z,53.1
2023-01-09T09:29:01.291Z,53.3
2023-01-09T09:30:01.964Z,53.2
2023-01-09T09:31:02.651Z,53.3
2023-01-09T09:32:01.049Z,53.4
2023-01-09T09:33:01.175Z,53.2
2023-01-09T09:34:01.138Z,53.4
2023-01-09T09:35:01.079Z,53.1
2023-01-09T09:36:01.079Z,53.1
2023-01-09T09:37:01.184Z,52.8
2023-01-09T09:38:03.306Z,52.8
2023-01-09T09:39:01.102Z,52.7
2023-01-09T09:40:09.807Z,52.9
2023-01-09T09:41:01.162Z,52.9
2023-01-09T09:42:01.144Z,52.8
2023-01-09T09:43:01.149Z,52.1
2023-01-09T09:44:00.833Z,51.8
2023-01-09T09:45:01.441Z,51.6
2023-01-09T09:46:01.211Z,51.4
2023-01-09T09:47:01.145Z,50.9
2023-01-09T09:48:01.938Z,49.7
2023-01-09T09:49:01.081Z,47.9
2023-01-09T09:50:01.070Z,47.1
2023-01-09T09:51:01.085Z,46.2
2023-01-09T09:52:01.082Z,45.9
2023-01-09T09:53:01.088Z,46
2023-01-09T09:54:01.103Z,46.2
2023-01-09T09:55:01.344Z,45.6
2023-01-09T09:56:01.413Z,44.8
2023-01-09T09:57:01.125Z,44.7
2023-01-09T09:58:01.149Z,44.3
2023-01-09T09:59:01.176Z,44.2
2023-01-09T10:00:01.158Z,42.7
2023-01-09T10:01:01.057Z,42.2
2023-01-09T10:02:01.264Z,42.1
2023-01-09T10:03:01.251Z,42.4
2023-01-09T10:04:01.197Z,42.2
2023-01-09T10:05:01.222Z,41.9
2023-01-09T10:06:01.587Z,41.2
2023-01-09T10:07:02.292Z,39.7
2023-01-09T10:08:14.965Z,39.2
2023-01-09T10:09:02.012Z,39.3
2023-01-09T10:10:01.763Z,38.8
2023-01-09T10:11:01.110Z,38.5
2023-01-09T10:12:01.525Z,38.3
2023-01-09T10:13:01.112Z,38.4
2023-01-09T10:14:01.928Z,38.6
2023-01-09T10:15:01.203Z,38.1
2023-01-09T10:16:04.209Z,37.8
2023-01-09T10:17:01.136Z,37.6
2023-01-09T10:18:01.158Z,37.8
2023-01-09T10:19:01.163Z,37.6
2023-01-09T10:20:01.273Z,37.5
2023-01-09T10:21:07.113Z,37.7
2023-01-09T10:22:01.917Z,37.8
2023-01-09T10:23:01.090Z,37.2
2023-01-09T10:24:00.672Z,36.9
2023-01-09T10:25:00.356Z,36.2
2023-01-09T10:26:10.117Z,36.2
2023-01-09T10:27:01.339Z,36.2
2023-01-09T10:28:01.916Z,36.2
2023-01-09T10:29:02.170Z,36.4
2023-01-09T10:30:01.687Z,36.4
2023-01-09T10:31:12.976Z,36.4
2023-01-09T10:31:59.885Z,36.3
2023-01-09T10:32:59.484Z,36
2023-01-09T10:34:02.220Z,35.8
2023-01-09T10:35:01.186Z,35.9
2023-01-09T10:36:15.616Z,35.8
2023-01-09T10:37:01.355Z,35.7
2023-01-09T10:38:01.263Z,35.8
2023-01-09T10:39:01.457Z,35.9
2023-01-09T10:40:02.443Z,35.7
2023-01-09T10:41:01.974Z,35.6
2023-01-09T10:42:03.971Z,35.7
2023-01-09T10:43:01.100Z,35.4
2023-01-09T10:44:00.695Z,35.2
2023-01-09T10:45:00.510Z,35.1
2023-01-09T10:46:00.293Z,35
2023-01-09T10:47:00.452Z,35.5
2023-01-09T10:48:00.530Z,34.9
2023-01-09T10:49:00.555Z,35
2023-01-09T10:50:00.575Z,35.2
2023-01-09T10:51:00.146Z,35.4
2023-01-09T10:51:59.785Z,35.4
2023-01-09T10:53:01.997Z,35
2023-01-09T10:54:01.176Z,34.7
2023-01-09T10:55:01.099Z,34.1
2023-01-09T10:56:01.218Z,34.2
2023-01-09T10:57:01.177Z,34.4
2023-01-09T10:58:01.477Z,34.5
2023-01-09T10:59:01.201Z,34.5
2023-01-09T11:00:01.248Z,34.5
2023-01-09T11:01:01.319Z,35.1
2023-01-09T11:02:00.117Z,35.2
2023-01-09T11:03:00.094Z,35.2
2023-01-09T11:03:59.883Z,35
2023-01-09T11:04:59.599Z,34.4
2023-01-09T11:06:01.240Z,33.9
2023-01-09T11:07:01.956Z,33.7
2023-01-09T11:08:00.967Z,33.8
2023-01-09T11:09:00.677Z,33.7
2023-01-09T11:10:00.361Z,33.4
2023-01-09T11:11:00.040Z,33.3
2023-01-09T11:11:59.742Z,33.5
2023-01-09T11:13:01.496Z,34
2023-01-09T11:14:01.091Z,34.2
2023-01-09T11:15:01.047Z,34.2
2023-01-09T11:16:01.881Z,34.3
2023-01-09T11:17:01.110Z,34.2
2023-01-09T11:18:01.254Z,34.2
2023-01-09T11:19:01.250Z,34.3
2023-01-09T11:20:02.118Z,34.8
2023-01-09T11:21:01.940Z,35.3
2023-01-09T11:22:01.329Z,35.1
2023-01-09T11:23:01.174Z,35.2
2023-01-09T11:24:00.883Z,35.4
2023-01-09T11:25:01.565Z,35.8
2023-01-09T11:26:02.292Z,35.9
2023-01-09T11:27:00.897Z,35.8
2023-01-09T11:28:01.211Z,35.8
2023-01-09T11:29:01.167Z,35.9
2023-01-09T11:30:01.104Z,35.9
2023-01-09T11:31:01.270Z,36.6
2023-01-09T11:32:00.432Z,36.5
2023-01-09T11:33:00.177Z,36.6
2023-01-09T11:33:59.770Z,37
2023-01-09T11:35:01.429Z,37.1
2023-01-09T11:36:01.597Z,37.1
2023-01-09T11:37:01.225Z,36.9
2023-01-09T11:38:01.158Z,37.1
2023-01-09T11:39:01.188Z,36.8
2023-01-09T11:40:01.176Z,36.8
2023-01-09T11:41:01.163Z,36.6
2023-01-09T11:42:01.185Z,36.6
2023-01-09T11:43:01.094Z,36.5
2023-01-09T11:44:00.796Z,36.3
2023-01-09T11:45:00.497Z,36
2023-01-09T11:46:01.925Z,36.2
2023-01-09T11:47:01.443Z,36.4
2023-01-09T11:48:01.144Z,36
2023-01-09T11:49:01.120Z,35.9
2023-01-09T11:50:01.117Z,35.9
2023-01-09T11:51:01.125Z,35.9
2023-01-09T11:52:01.138Z,35.9
2023-01-09T11:53:01.131Z,36.1
2023-01-09T11:54:01.277Z,36
2023-01-09T11:55:01.503Z,36.2
2023-01-09T11:56:01.227Z,36
2023-01-09T11:57:02.769Z,35.9
2023-01-09T11:58:01.204Z,35.9
2023-01-09T11:59:01.531Z,36.1
2023-01-09T12:00:01.333Z,36
2023-01-09T12:01:01.408Z,35.9
2023-01-09T12:02:07.166Z,36.2
2023-01-09T12:03:01.129Z,36.2
2023-01-09T12:04:01.427Z,36.7
2023-01-09T12:05:01.931Z,36.8
2023-01-09T12:06:01.319Z,36.3
2023-01-09T12:07:10.379Z,36.5
2023-01-09T12:08:01.190Z,35.9
2023-01-09T12:09:01.409Z,35.8
2023-01-09T12:10:04.116Z,35.8
2023-01-09T12:11:04.221Z,35.8
2023-01-09T12:12:16.384Z,35.7
2023-01-09T12:13:01.230Z,35.5
2023-01-09T12:14:01.167Z,35
2023-01-09T12:15:01.353Z,34.8
2023-01-09T12:16:01.611Z,35
2023-01-09T12:17:16.846Z,35.1
2023-01-09T12:18:01.221Z,34.9
2023-01-09T12:19:01.866Z,34.3
2023-01-09T12:20:01.873Z,34.1
2023-01-09T12:21:01.097Z,34.1
2023-01-09T12:22:01.126Z,34.2
2023-01-09T12:23:01.128Z,33.7
2023-01-09T12:24:01.532Z,33.4
2023-01-09T12:25:01.573Z,33
2023-01-09T12:26:01.161Z,33.1
2023-01-09T12:27:01.071Z,31.5
2023-01-09T12:28:01.147Z,31.3
2023-01-09T12:29:01.148Z,31.2
2023-01-09T12:30:01.173Z,30.7
2023-01-09T12:31:01.176Z,30.8
2023-01-09T12:32:00.339Z,30.2
2023-01-09T12:33:00.067Z,30.3
2023-01-09T12:34:00.061Z,30.8
2023-01-09T12:34:59.752Z,30.1
2023-01-09T12:36:02.053Z,30
2023-01-09T12:37:02.772Z,29.6
2023-01-09T12:38:02.024Z,29.2
2023-01-09T12:39:01.809Z,29.3
2023-01-09T12:40:01.139Z,29.1
2023-01-09T12:41:01.080Z,29.1
2023-01-09T12:42:01.490Z,29.2
2023-01-09T12:43:01.149Z,28.4
2023-01-09T12:44:01.153Z,28.6
2023-01-09T12:45:00.932Z,28.3
2023-01-09T12:46:01.273Z,27.8
2023-01-09T12:47:01.251Z,27.8
2023-01-09T12:48:02.419Z,27.3
2023-01-09T12:49:01.155Z,26.8
2023-01-09T12:50:01.058Z,26.3
2023-01-09T12:51:01.103Z,26
2023-01-09T12:52:01.259Z,25.7
2023-01-09T12:53:01.211Z,24.5
2023-01-09T12:54:01.162Z,23.9
2023-01-09T12:55:02.230Z,23.9
2023-01-09T12:56:01.156Z,23.9
2023-01-09T12:57:01.125Z,23.9
2023-01-09T12:58:01.244Z,23.3
2023-01-09T12:59:01.190Z,22.9
2023-01-09T13:00:01.799Z,22.3
2023-01-09T13:01:01.485Z,22.4
2023-01-09T13:02:00.441Z,22.7
2023-01-09T13:03:11.254Z,22.7
2023-01-09T13:04:01.075Z,22.4
2023-01-09T13:05:00.784Z,22.3
2023-01-09T13:06:00.467Z,22
2023-01-09T13:07:00.146Z,21.8
2023-01-09T13:07:59.852Z,21.5
2023-01-09T13:09:02.636Z,21.5
2023-01-09T13:10:01.470Z,20.5
2023-01-09T13:11:08.559Z,20
2023-01-09T13:12:01.073Z,19.9
2023-01-09T13:13:01.065Z,19.9
2023-01-09T13:14:01.134Z,20.2
2023-01-09T13:15:01.163Z,20.2
2023-01-09T13:16:01.223Z,19.1
2023-01-09T13:17:01.959Z,18.3
2023-01-09T13:18:01.342Z,18.3
2023-01-09T13:19:01.714Z,18.4
2023-01-09T13:20:02.335Z,18.3
2023-01-09T13:21:01.387Z,18.7
2023-01-09T13:22:01.887Z,18.3
2023-01-09T13:23:01.122Z,17.6
2023-01-09T13:24:01.107Z,17.7